Time;durP1;ratioP1;P1;durP2;ratioP2;P2;SDS_P1;SDS_P2;PMS_P1;PMS_P2;Temp;Humidity;BMP_temperature;BMP_pressure;BME280_temperature;BME280_humidity;BME280_pressure;Samples;Min_cycle;Max_cycle;Signal;HPM_P1;HPM_P2
2022/04/23 00:01:10;;;;;;;19.38;17.35;;;;;;;9.15;67.20;99246.75;5077457;28;20045;-83
2022/04/23 00:03:38;;;;;;;18.20;16.25;;;;;;;9.13;67.44;99246.25;5076880;28;20056;-83
2022/04/23 00:06:07;;;;;;;17.70;15.90;;;;;;;9.11;67.60;99241.06;5077692;28;20048;-83
2022/04/23 00:08:34;;;;;;;17.83;15.93;;;;;;;9.07;66.90;99236.50;5059479;28;20074;-83
2022/04/23 00:11:01;;;;;;;16.83;15.13;;;;;;;9.06;66.99;99237.66;5074352;28;20086;-83
2022/04/23 00:13:29;;;;;;;16.08;14.40;;;;;;;9.03;67.36;99238.31;5075257;28;20056;-82
2022/04/23 00:15:58;;;;;;;16.50;14.80;;;;;;;9.05;67.43;99244.34;5076671;28;20127;-82
2022/04/23 00:18:25;;;;;;;15.93;14.23;;;;;;;9.06;68.29;99243.22;5069452;28;20051;-82
2022/04/23 00:20:52;;;;;;;15.38;13.80;;;;;;;9.05;68.00;99242.41;5076630;28;20060;-81
2022/04/23 00:23:19;;;;;;;14.50;13.00;;;;;;;9.08;68.18;99243.69;5075223;28;20051;-81
2022/04/23 00:25:50;;;;;;;14.73;13.23;;;;;;;9.11;68.28;99243.00;5075128;28;20481;-83
2022/04/23 00:28:18;;;;;;;14.57;13.02;;;;;;;9.13;68.41;99243.47;5076218;28;20049;-82
2022/04/23 00:30:45;;;;;;;14.48;13.00;;;;;;;9.17;68.33;99250.00;5075474;28;20055;-82
2022/04/23 00:33:14;;;;;;;12.60;11.30;;;;;;;9.21;68.82;99250.16;5075896;28;20052;-82
2022/04/23 00:35:42;;;;;;;13.60;12.05;;;;;;;9.28;69.10;99250.44;5076373;28;20075;-81
2022/04/23 00:38:09;;;;;;;14.98;12.40;;;;;;;9.29;69.40;99249.28;5074775;28;20049;-82
2022/04/23 00:40:38;;;;;;;15.00;13.40;;;;;;;9.35;69.13;99245.16;5076442;28;20052;-82
2022/04/23 00:43:10;;;;;;;14.35;12.82;;;;;;;9.39;69.24;99240.56;5076332;28;20044;-82
2022/04/23 00:45:38;;;;;;;17.13;13.75;;;;;;;9.49;69.93;99244.91;5075330;28;20049;-81
2022/04/23 00:48:06;;;;;;;14.63;13.13;;;;;;;9.53;69.84;99240.28;5075740;28;20061;-80
2022/04/23 00:50:35;;;;;;;13.77;12.38;;;;;;;9.61;69.97;99244.19;5076071;28;20048;-82
2022/04/23 00:53:04;;;;;;;13.87;12.37;;;;;;;9.65;70.32;99243.16;5075778;28;20052;-82
2022/04/23 00:55:33;;;;;;;14.50;13.00;;;;;;;9.71;70.17;99243.78;5075483;28;20539;-82
2022/04/23 00:58:02;;;;;;;15.60;13.82;;;;;;;9.77;70.29;99234.09;5076598;28;20059;-83
2022/04/23 01:00:29;;;;;;;16.50;14.55;;;;;;;9.83;70.69;99231.91;5075552;28;20044;-82
2022/04/23 01:02:57;;;;;;;15.68;13.80;;;;;;;9.88;70.35;99231.69;5071737;28;20048;-82
2022/04/23 01:05:24;;;;;;;16.63;14.93;;;;;;;9.93;70.48;99237.03;5058750;28;20049;-81
2022/04/23 01:07:54;;;;;;;16.75;15.05;;;;;;;9.98;70.84;99222.94;5060720;28;20041;-82
2022/04/23 01:10:23;;;;;;;17.80;15.90;;;;;;;10.04;71.16;99237.47;5074284;28;20059;-81
2022/04/23 01:12:50;;;;;;;20.92;17.90;;;;;;;10.05;71.69;99225.97;5074541;28;20059;-80
2022/04/23 01:15:18;;;;;;;18.83;15.68;;;;;;;10.12;71.87;99231.81;5074974;28;20060;-82
2022/04/23 01:17:47;;;;;;;18.45;16.48;;;;;;;10.15;71.47;99238.66;5074401;28;20044;-82
2022/04/23 01:20:20;;;;;;;19.08;17.02;;;;;;;10.20;71.38;99229.28;5075536;28;20048;-81
2022/04/23 01:22:47;;;;;;;19.80;17.70;;;;;;;10.23;71.56;99226.63;5074767;28;21031;-82
2022/04/23 01:25:15;;;;;;;20.00;17.60;;;;;;;10.26;71.69;99236.25;5071493;28;20401;-82
2022/04/23 01:27:45;;;;;;;21.23;18.92;;;;;;;10.26;71.70;99228.72;5073437;28;20059;-81
2022/04/23 01:30:13;;;;;;;21.35;18.13;;;;;;;10.28;71.83;99223.63;5075580;28;20207;-81
2022/04/23 01:32:40;;;;;;;20.70;17.73;;;;;;;10.29;71.65;99227.22;5075280;28;20048;-81
2022/04/23 01:35:09;;;;;;;20.67;18.50;;;;;;;10.31;71.42;99220.19;5074260;28;20048;-81
2022/04/23 01:37:38;;;;;;;20.98;18.27;;;;;;;10.29;71.42;99232.78;5075370;28;20056;-81
2022/04/23 01:40:07;;;;;;;21.02;18.85;;;;;;;10.29;71.38;99227.22;5068686;28;20049;-82
2022/04/23 01:42:34;;;;;;;20.10;18.00;;;;;;;10.27;71.08;99224.78;5073105;28;20053;-82
2022/04/23 01:45:01;;;;;;;20.33;18.15;;;;;;;10.24;71.53;99219.09;5074469;28;20056;-81
2022/04/23 01:47:29;;;;;;;20.73;18.02;;;;;;;10.23;71.01;99223.03;5073716;28;20059;-82
2022/04/23 01:49:56;;;;;;;22.23;19.63;;;;;;;10.22;70.94;99222.22;5074213;28;20057;-81
2022/04/23 01:52:23;;;;;;;19.30;17.27;;;;;;;10.21;71.10;99228.94;5075370;28;20067;-81
2022/04/23 01:54:52;;;;;;;20.55;18.33;;;;;;;10.18;70.89;99221.25;5072097;28;20386;-81
2022/04/23 01:57:20;;;;;;;21.40;19.02;;;;;;;10.13;70.64;99225.06;5073139;28;20413;-81
2022/04/23 01:59:47;;;;;;;22.63;19.33;;;;;;;10.11;71.08;99226.59;5074831;28;20064;-81
2022/04/23 02:02:14;;;;;;;24.02;20.40;;;;;;;10.10;71.34;99224.94;5075228;28;20410;-82
2022/04/23 02:04:42;;;;;;;23.67;21.15;;;;;;;10.06;71.58;99208.13;5075012;28;20047;-81
2022/04/23 02:07:09;;;;;;;26.52;23.63;;;;;;;10.03;71.56;99214.38;5074945;28;20044;-80
2022/04/23 02:09:38;;;;;;;28.05;24.52;;;;;;;10.02;72.30;99214.72;5073995;28;20052;-80
2022/04/23 02:12:07;;;;;;;25.48;22.67;;;;;;;10.02;72.40;99221.09;5074582;28;20051;-81
2022/04/23 02:14:35;;;;;;;25.70;22.90;;;;;;;10.01;72.79;99215.88;5074320;28;20057;-80
2022/04/23 02:17:03;;;;;;;30.75;26.25;;;;;;;10.02;73.10;99215.53;5074851;28;20401;-81
2022/04/23 02:19:30;;;;;;;29.80;25.10;;;;;;;10.05;73.47;99222.38;5074686;28;20063;-81
2022/04/23 02:21:57;;;;;;;30.08;25.80;;;;;;;10.09;73.41;99212.19;5074541;28;20420;-82
2022/04/23 02:24:25;;;;;;;29.25;26.13;;;;;;;10.13;73.91;99221.50;5073869;28;20485;-81
2022/04/23 02:26:52;;;;;;;33.65;28.52;;;;;;;10.17;74.15;99214.09;5069292;28;20075;-82
2022/04/23 02:29:21;;;;;;;29.63;26.42;;;;;;;10.21;73.94;99214.22;5074596;28;20049;-82
2022/04/23 02:31:48;;;;;;;29.83;26.55;;;;;;;10.22;73.86;99211.06;5074655;28;20052;-80
2022/04/23 02:34:16;;;;;;;29.85;25.95;;;;;;;10.24;73.80;99219.91;5074959;28;20056;-80
2022/04/23 02:36:46;;;;;;;31.63;27.83;;;;;;;10.25;73.69;99215.97;5063400;28;20049;-81
2022/04/23 02:39:13;;;;;;;30.60;27.30;;;;;;;10.26;73.39;99216.78;5073242;28;20053;-82
2022/04/23 02:41:40;;;;;;;30.33;26.98;;;;;;;10.26;73.73;99217.59;5071899;28;20381;-79
2022/04/23 02:44:07;;;;;;;33.97;28.88;;;;;;;10.18;74.02;99212.91;5064130;28;20052;-81
2022/04/23 02:46:39;;;;;;;32.15;28.30;;;;;;;10.21;73.51;99223.38;5073032;28;20055;-82
2022/04/23 02:49:06;;;;;;;34.05;29.05;;;;;;;10.21;73.64;99222.56;5062644;28;20052;-81
2022/04/23 02:51:33;;;;;;;33.13;29.70;;;;;;;10.23;73.61;99215.50;5072945;28;20049;-81
2022/04/23 02:54:01;;;;;;;31.15;26.80;;;;;;;10.23;73.54;99223.03;5075182;28;20056;-81
2022/04/23 02:56:33;;;;;;;27.45;24.55;;;;;;;10.22;73.38;99221.41;5078234;28;20409;-81
2022/04/23 02:59:02;;;;;;;30.42;26.27;;;;;;;10.25;73.26;99220.72;5077142;28;20055;-82
2022/04/23 03:01:29;;;;;;;29.45;26.35;;;;;;;10.23;72.96;99225.81;5077524;28;20044;-82
2022/04/23 03:03:59;;;;;;;31.40;28.08;;;;;;;10.23;73.38;99220.25;5077638;28;20048;-81
2022/04/23 03:06:29;;;;;;;29.27;24.73;;;;;;;10.26;73.37;99214.00;5076320;28;20496;-81
2022/04/23 03:08:56;;;;;;;31.20;27.88;;;;;;;10.27;73.23;99215.63;5078036;28;20064;-80
2022/04/23 03:11:23;;;;;;;28.85;25.77;;;;;;;10.30;73.20;99218.56;5077547;28;20055;-81
2022/04/23 03:13:53;;;;;;;30.65;27.48;;;;;;;10.32;73.22;99215.44;5077197;28;20468;-81
2022/04/23 03:16:21;;;;;;;27.17;24.27;;;;;;;10.28;72.89;99214.47;5077336;28;20045;-82
2022/04/23 03:18:48;;;;;;;28.83;25.73;;;;;;;10.27;72.98;99221.19;5077213;28;20412;-81
2022/04/23 03:21:17;;;;;;;30.83;27.52;;;;;;;10.27;72.63;99229.56;5076428;28;20052;-80
2022/04/23 03:23:44;;;;;;;28.45;25.52;;;;;;;10.27;72.48;99226.75;5077219;28;20055;-81
2022/04/23 03:26:12;;;;;;;29.63;26.42;;;;;;;10.21;72.60;99225.34;5077453;28;20481;-82
2022/04/23 03:28:39;;;;;;;29.00;25.95;;;;;;;10.20;72.89;99218.16;5076320;28;20482;-80
2022/04/23 03:31:08;;;;;;;30.73;27.17;;;;;;;10.23;73.39;99223.03;5077420;28;20053;-82
2022/04/23 03:33:35;;;;;;;28.02;25.02;;;;;;;10.26;73.68;99222.34;5071834;28;20049;-82
2022/04/23 03:36:03;;;;;;;31.08;27.77;;;;;;;10.33;73.57;99223.44;5071456;28;20060;-82
2022/04/23 03:38:32;;;;;;;30.63;27.38;;;;;;;10.41;73.64;99224.50;5077244;28;20055;-81
2022/04/23 03:40:59;;;;;;;30.15;26.88;;;;;;;10.56;73.86;99228.59;5076965;28;20060;-81
2022/04/23 03:43:27;;;;;;;29.85;26.70;;;;;;;10.66;73.71;99219.78;5076520;28;20481;-81
2022/04/23 03:45:54;;;;;;;27.58;24.77;;;;;;;10.79;73.55;99226.19;5076795;28;20053;-82
2022/04/23 03:48:21;;;;;;;27.48;24.58;;;;;;;10.93;73.50;99229.44;5077136;28;20413;-81
2022/04/23 03:50:48;;;;;;;30.27;27.17;;;;;;;11.06;72.89;99218.31;5074227;28;20044;-81
2022/04/23 03:53:16;;;;;;;28.75;25.65;;;;;;;11.18;72.66;99218.31;5076488;28;20048;-81
2022/04/23 03:55:45;;;;;;;28.85;25.88;;;;;;;11.29;72.63;99216.66;5076836;28;20051;-81
2022/04/23 03:58:12;;;;;;;29.70;26.58;;;;;;;11.36;72.03;99208.53;5076535;28;20052;-81
2022/04/23 04:00:40;;;;;;;31.30;28.10;;;;;;;11.43;71.70;99218.28;5076494;28;20048;-81
2022/04/23 04:03:08;;;;;;;29.73;26.73;;;;;;;11.51;71.21;99215.38;5076266;28;20060;-80
2022/04/23 04:05:35;;;;;;;30.60;27.02;;;;;;;11.57;71.05;99213.97;5075292;28;20048;-80
2022/04/23 04:08:02;;;;;;;30.33;27.13;;;;;;;11.65;71.01;99211.38;5077217;28;20531;-82
2022/04/23 04:10:30;;;;;;;29.90;26.73;;;;;;;11.68;70.90;99213.47;5076956;28;20396;-81
2022/04/23 04:12:58;;;;;;;28.40;25.50;;;;;;;11.74;70.46;99207.28;5075524;28;20071;-81
2022/04/23 04:15:26;;;;;;;28.63;25.73;;;;;;;11.79;69.90;99220.97;5068951;28;20377;-81
2022/04/23 04:17:55;;;;;;;29.80;26.70;;;;;;;11.83;70.04;99214.72;5075998;28;20453;-82
2022/04/23 04:20:22;;;;;;;;;;;;;;;11.82;69.56;99213.06;5075942;28;20481;-81
2022/04/23 04:22:50;;;;;;;31.48;28.17;;;;;;;11.81;69.54;99217.03;5076114;28;20289;-80
2022/04/23 04:25:18;;;;;;;31.55;28.35;;;;;;;11.79;69.49;99211.81;5076056;28;20052;-81
2022/04/23 04:27:45;;;;;;;30.35;27.27;;;;;;;11.80;69.30;99196.72;5076396;28;20480;-82
2022/04/23 04:30:14;;;;;;;29.98;26.95;;;;;;;11.75;69.14;99208.91;5076290;28;20052;-81
2022/04/23 04:32:42;;;;;;;30.90;27.77;;;;;;;11.71;69.42;99201.59;5074385;28;20056;-81
2022/04/23 04:35:10;;;;;;;31.15;27.95;;;;;;;11.72;69.13;99204.03;5076088;28;20052;-82
2022/04/23 04:37:38;;;;;;;29.73;26.65;;;;;;;11.71;68.90;99202.41;5073779;28;20400;-82
2022/04/23 04:40:06;;;;;;;30.73;27.58;;;;;;;11.68;69.23;99200.34;5076362;28;20056;-82
2022/04/23 04:42:34;;;;;;;31.85;28.65;;;;;;;11.67;69.24;99197.91;5075255;28;20052;-81
2022/04/23 04:45:02;;;;;;;32.60;29.30;;;;;;;11.69;69.14;99199.16;5073938;28;20057;-80
2022/04/23 04:47:31;;;;;;;31.77;28.55;;;;;;;11.72;69.14;99209.63;5073673;28;20048;-80
2022/04/23 04:49:58;;;;;;;30.37;27.30;;;;;;;11.74;69.31;99204.50;5074773;28;20056;-80
2022/04/23 04:52:26;;;;;;;30.20;26.90;;;;;;;11.77;68.88;99205.78;5074063;28;20044;-79
2022/04/23 04:54:53;;;;;;;29.40;26.40;;;;;;;11.84;68.92;99210.75;5074743;28;20056;-80
2022/04/23 04:57:20;;;;;;;30.77;27.75;;;;;;;11.91;68.58;99213.78;5062325;28;20053;-80
2022/04/23 04:59:48;;;;;;;29.35;26.25;;;;;;;12.01;68.70;99215.25;5074589;28;20056;-81
2022/04/23 05:02:15;;;;;;;29.92;27.02;;;;;;;12.08;68.51;99219.06;5073980;28;20417;-80
2022/04/23 05:04:44;;;;;;;27.90;25.10;;;;;;;12.15;68.33;99213.66;5074949;28;20071;-81
2022/04/23 05:07:11;;;;;;;30.27;27.15;;;;;;;12.26;68.07;99215.94;5075615;28;20489;-82
2022/04/23 05:09:38;;;;;;;28.05;25.25;;;;;;;12.36;67.57;99218.22;5074640;28;20048;-81
2022/04/23 05:12:06;;;;;;;30.80;27.60;;;;;;;12.47;67.07;99218.50;5060332;28;20056;-80
2022/04/23 05:14:33;;;;;;;31.00;27.92;;;;;;;12.57;66.46;99221.59;5074186;28;20493;-82
2022/04/23 05:17:01;;;;;;;29.10;26.13;;;;;;;12.69;66.35;99217.91;5064405;28;20057;-80
2022/04/23 05:19:28;;;;;;;30.30;27.25;;;;;;;12.78;65.68;99214.94;5072358;28;20071;-81
2022/04/23 05:21:57;;;;;;;28.75;25.95;;;;;;;12.91;65.78;99219.25;5073977;28;20048;-81
2022/04/23 05:24:24;;;;;;;28.87;25.97;;;;;;;13.02;64.75;99218.72;5074550;28;20060;-81
2022/04/23 05:26:52;;;;;;;29.13;26.10;;;;;;;13.13;64.44;99225.41;5075153;28;20056;-82
2022/04/23 05:29:19;;;;;;;29.77;26.63;;;;;;;13.28;64.38;99229.34;5074570;28;20045;-81
2022/04/23 05:31:46;;;;;;;30.83;27.67;;;;;;;13.42;63.68;99231.69;5067814;28;20057;-81
2022/04/23 05:34:17;;;;;;;28.92;26.13;;;;;;;13.57;62.86;99222.47;5071437;28;20517;-81
2022/04/23 05:36:44;;;;;;;27.08;24.48;;;;;;;13.72;62.87;99218.78;5075443;28;20055;-81
2022/04/23 05:39:13;;;;;;;28.77;25.88;;;;;;;13.88;62.40;99221.53;5071895;28;20052;-82
2022/04/23 05:41:40;;;;;;;28.17;25.35;;;;;;;14.03;61.64;99222.66;5075085;28;20056;-81
2022/04/23 05:44:08;;;;;;;26.80;24.10;;;;;;;14.17;61.11;99222.94;5074458;28;20409;-81
2022/04/23 05:46:35;;;;;;;25.23;22.73;;;;;;;14.21;60.68;99223.00;5075306;28;20044;-81
2022/04/23 05:49:03;;;;;;;27.77;25.02;;;;;;;14.27;59.56;99224.31;5074558;28;20063;-81
2022/04/23 05:51:30;;;;;;;26.92;24.30;;;;;;;14.32;59.64;99223.19;5075496;28;20497;-80
2022/04/23 05:53:57;;;;;;;26.00;23.50;;;;;;;14.35;59.22;99223.28;5075136;28;20052;-80
2022/04/23 05:56:28;;;;;;;28.17;25.48;;;;;;;14.36;59.01;99219.31;5075026;28;20045;-81
2022/04/23 05:58:56;;;;;;;28.10;25.30;;;;;;;14.36;59.14;99222.13;5078798;28;20060;-81
2022/04/23 06:01:23;;;;;;;27.50;24.77;;;;;;;14.35;58.80;99220.47;5074502;28;20059;-81
2022/04/23 06:03:50;;;;;;;26.23;23.80;;;;;;;14.36;58.61;99224.09;5072134;28;20060;-81
2022/04/23 06:06:19;;;;;;;28.88;26.02;;;;;;;14.35;58.59;99230.88;5076336;28;20044;-82
2022/04/23 06:08:46;;;;;;;26.42;23.73;;;;;;;14.37;58.29;99225.72;5085148;28;20048;-81
2022/04/23 06:11:14;;;;;;;27.50;24.80;;;;;;;14.44;58.12;99225.84;5078625;28;20480;-80
2022/04/23 06:13:42;;;;;;;28.40;25.58;;;;;;;14.50;57.87;99217.94;5072849;28;20068;-79
2022/04/23 06:16:09;;;;;;;27.92;25.13;;;;;;;14.47;57.93;99215.88;5074254;28;20060;-81
2022/04/23 06:18:37;;;;;;;26.98;24.27;;;;;;;14.51;58.06;99214.78;5073978;28;20056;-80
2022/04/23 06:21:04;;;;;;;26.48;23.88;;;;;;;14.56;57.75;99217.31;5074165;28;20052;-81
2022/04/23 06:23:32;;;;;;;27.38;24.83;;;;;;;14.61;57.87;99210.56;5068043;28;20056;-79
2022/04/23 06:26:02;;;;;;;26.92;24.25;;;;;;;14.67;57.73;99216.69;5080703;28;20057;-80
2022/04/23 06:28:29;;;;;;;26.42;23.90;;;;;;;14.72;57.40;99220.00;5075975;28;20053;-81
2022/04/23 06:30:58;;;;;;;25.50;22.98;;;;;;;14.80;56.97;99213.34;5075636;28;20151;-80
2022/04/23 06:33:25;;;;;;;26.58;24.02;;;;;;;14.86;56.92;99213.00;5078946;28;20049;-80
2022/04/23 06:35:53;;;;;;;26.55;24.00;;;;;;;14.93;56.80;99211.16;5080689;28;20489;-80
2022/04/23 06:38:23;;;;;;;25.95;23.45;;;;;;;15.04;56.97;99218.94;5077975;28;20044;-81
2022/04/23 06:40:51;;;;;;;26.92;24.23;;;;;;;15.16;56.22;99210.28;5078891;28;20052;-82
2022/04/23 06:43:18;;;;;;;28.85;26.08;;;;;;;15.16;55.61;99222.34;5076881;28;20520;-81
2022/04/23 06:45:46;;;;;;;24.33;21.92;;;;;;;15.34;55.83;99219.81;5083674;28;20051;-81
2022/04/23 06:48:15;;;;;;;24.77;22.45;;;;;;;15.50;55.46;99216.84;5077564;28;20052;-80
2022/04/23 06:50:42;;;;;;;26.20;23.70;;;;;;;15.65;54.46;99219.88;5078886;28;20048;-79
2022/04/23 06:53:10;;;;;;;24.83;22.42;;;;;;;15.72;53.55;99217.19;5076557;28;20791;-80
2022/04/23 06:55:37;;;;;;;23.88;21.63;;;;;;;15.85;53.77;99220.56;5077472;28;20063;-79
2022/04/23 07:00:52;;;;;;;24.13;21.73;;;;;;;15.85;52.28;99217.75;5068866;28;20049;-80
2022/04/23 07:03:21;;;;;;;22.88;20.67;;;;;;;15.80;50.89;99216.88;5077564;28;20048;-80
2022/04/23 07:05:49;;;;;;;22.38;19.80;;;;;;;15.68;50.45;99213.47;5079161;28;20060;-80
2022/04/23 07:08:17;;;;;;;21.58;19.45;;;;;;;15.69;51.09;99204.69;5097907;28;20067;-81
2022/04/23 07:10:48;;;;;;;20.90;18.92;;;;;;;15.85;50.76;99220.56;5093868;28;20048;-81
2022/04/23 07:13:16;;;;;;;21.42;19.33;;;;;;;15.78;50.21;99208.03;5079407;28;20416;-80
2022/04/23 07:15:44;;;;;;;20.23;18.23;;;;;;;15.91;50.32;99210.59;5076755;28;20493;-80
2022/04/23 07:18:12;;;;;;;21.33;19.23;;;;;;;16.14;49.61;99216.09;5058298;28;20059;-81
2022/04/23 07:20:41;;;;;;;18.85;16.83;;;;;;;16.44;48.70;99214.06;5080466;28;20067;-81
2022/04/23 07:25:54;;;;;;;19.92;17.92;;;;;;;17.67;44.97;99207.44;5082730;28;20051;-80
2022/04/23 07:28:22;;;;;;;20.50;18.27;;;;;;;17.89;44.75;99201.94;5080431;28;20056;-82
2022/04/23 07:30:50;;;;;;;18.20;16.50;;;;;;;18.31;43.45;99200.50;5086438;28;20044;-83
2022/04/23 07:38:45;;;;;;;16.98;15.38;;;;;;;19.90;39.33;99205.00;5083233;28;20047;-80
2022/04/23 07:41:15;;;;;;;16.92;14.27;;;;;;;20.17;38.82;99194.78;5087203;28;20056;-79
2022/04/23 07:43:42;;;;;;;16.63;14.93;;;;;;;21.13;37.19;99205.94;5081022;28;20053;-81
2022/04/23 07:46:10;;;;;;;16.15;14.55;;;;;;;21.51;36.04;99191.84;5081498;28;20048;-83
2022/04/23 07:48:37;;;;;;;16.10;14.63;;;;;;;21.49;36.08;99206.44;5083466;28;20062;-83
2022/04/23 07:51:08;;;;;;;15.88;14.30;;;;;;;22.24;34.73;99205.59;5084626;28;20048;-82
2022/04/23 07:53:38;;;;;;;17.65;14.98;;;;;;;22.92;33.64;99206.66;5092426;28;20051;-82
2022/04/23 07:56:08;;;;;;;15.27;13.73;;;;;;;23.38;32.30;99196.59;5091189;28;20052;-82
2022/04/23 07:58:44;;;;;;;15.55;14.02;;;;;;;23.38;32.78;99204.31;5081632;28;20048;-84
2022/04/23 08:01:14;;;;;;;14.90;13.60;;;;;;;23.94;31.88;99200.84;5088643;28;20048;-84
2022/04/23 08:03:42;;;;;;;14.02;12.73;;;;;;;24.81;30.27;99203.47;5082463;28;20080;-84
2022/04/23 08:06:13;;;;;;;14.90;13.40;;;;;;;25.36;29.03;99195.22;5082860;28;20052;-83
2022/04/23 08:08:42;;;;;;;16.00;12.25;;;;;;;26.24;28.31;99196.06;5079542;28;20060;-83
2022/04/23 08:11:10;;;;;;;15.00;13.60;;;;;;;26.91;26.47;99190.34;5086861;28;20040;-82
2022/04/23 08:13:37;;;;;;;14.05;12.75;;;;;;;26.63;26.83;99200.63;5083077;28;20060;-84
2022/04/23 08:16:05;;;;;;;14.45;13.15;;;;;;;26.72;26.27;99192.16;5081158;28;20060;-81
2022/04/23 08:18:33;;;;;;;13.93;12.73;;;;;;;27.20;26.01;99185.75;5086544;28;20044;-82
2022/04/23 08:21:00;;;;;;;13.85;12.65;;;;;;;27.98;24.98;99182.22;5078553;28;20071;-79
2022/04/23 08:23:33;;;;;;;13.93;12.73;;;;;;;28.58;24.93;99177.50;5072664;28;20059;-80
2022/04/23 08:26:05;;;;;;;13.30;12.00;;;;;;;29.38;23.46;99188.16;5072951;28;20079;-79
2022/04/23 08:31:17;;;;;;;14.25;13.05;;;;;;;29.78;22.24;99175.78;5077911;28;20071;-79
2022/04/23 08:34:00;;;;;;;13.07;11.77;;;;;;;30.12;21.87;99176.72;5090348;28;20432;-80
2022/04/23 08:36:30;;;;;;;12.40;11.30;;;;;;;30.17;21.86;99178.94;5073794;28;20049;-80
2022/04/23 08:39:00;;;;;;;13.10;11.95;;;;;;;30.23;21.68;99171.25;5068284;28;20056;-79
2022/04/23 08:41:31;;;;;;;12.18;11.18;;;;;;;30.65;21.81;99167.66;5078198;28;20052;-81
2022/04/23 08:44:03;;;;;;;11.57;10.48;;;;;;;31.25;20.86;99170.91;5082789;28;20056;-80
2022/04/23 08:46:32;;;;;;;11.65;10.55;;;;;;;31.71;20.34;99164.84;5085887;28;20418;-79
2022/04/23 08:49:10;;;;;;;13.00;11.80;;;;;;;31.73;19.83;99173.78;5084255;28;20052;-80
2022/04/23 08:51:40;;;;;;;12.52;11.30;;;;;;;32.09;19.91;99166.16;5078132;28;20057;-79
2022/04/23 08:54:10;;;;;;;11.93;10.88;;;;;;;32.47;19.49;99164.47;5092028;28;20055;-80
2022/04/23 08:56:39;;;;;;;11.45;10.55;;;;;;;32.79;19.00;99168.41;5077353;28;20052;-79
2022/04/23 08:59:10;;;;;;;11.18;10.27;;;;;;;33.19;19.09;99166.94;5093742;28;20488;-79
2022/04/23 09:01:39;;;;;;;10.60;9.75;;;;;;;33.66;18.14;99170.75;5078108;28;20055;-79
2022/04/23 09:04:07;;;;;;;15.35;11.25;;;;;;;32.79;19.22;99171.31;5067460;28;20079;-79
2022/04/23 09:06:35;;;;;;;;;;;;;;;31.09;20.10;99170.03;5078106;28;20048;-80
2022/04/23 09:09:17;;;;;;;11.32;10.15;;;;;;;31.27;19.82;99171.22;5079129;28;19928;-80
2022/04/23 09:11:46;;;;;;;11.35;10.05;;;;;;;29.63;21.07;99169.03;5078309;28;20056;-80
2022/04/23 09:14:27;;;;;;;14.10;11.05;;;;;;;28.70;22.18;99168.00;5072671;28;20056;-79
2022/04/23 09:25:34;;;;;;;12.13;10.98;;;;;;;27.00;24.52;99178.19;5075793;28;20052;-81
2022/04/23 09:28:18;;;;;;;12.23;11.13;;;;;;;26.47;25.29;99172.13;5078156;28;20052;-81
2022/04/23 09:30:52;;;;;;;12.15;10.95;;;;;;;26.47;25.29;99177.84;5084411;28;20044;-82
2022/04/23 09:33:21;;;;;;;12.10;10.90;;;;;;;26.03;25.79;99175.47;5083279;28;20044;-81
2022/04/23 09:35:55;;;;;;;;;;;;;;;25.21;27.02;99187.03;5089807;28;20040;-81
2022/04/23 09:38:23;;;;;;;12.30;11.00;;;;;;;24.99;27.33;99177.38;5089149;28;19920;-80
2022/04/23 09:40:55;;;;;;;12.10;11.00;;;;;;;25.17;27.68;99188.34;5084415;28;20060;-80
2022/04/23 09:43:28;;;;;;;13.75;12.45;;;;;;;25.06;27.34;99175.16;5082366;28;20051;-80
2022/04/23 09:46:05;;;;;;;13.93;12.52;;;;;;;24.46;28.37;99183.91;5079309;28;20493;-80
2022/04/23 09:48:33;;;;;;;13.40;12.10;;;;;;;24.69;28.26;99183.00;5080549;28;20045;-80
2022/04/23 09:51:00;;;;;;;14.23;12.77;;;;;;;24.79;28.09;99186.03;5088996;28;20044;-80
2022/04/23 09:53:28;;;;;;;14.00;12.60;;;;;;;24.74;28.63;99178.00;5084121;28;20059;-78
2022/04/23 09:56:04;;;;;;;14.32;12.88;;;;;;;24.56;27.93;99193.44;5079850;28;20045;-78
2022/04/23 09:58:33;;;;;;;14.38;12.98;;;;;;;24.94;27.63;99175.09;5059296;28;20504;-79
2022/04/23 10:01:01;;;;;;;14.25;12.75;;;;;;;24.94;27.41;99187.28;5063291;28;20061;-78
2022/04/23 10:03:30;;;;;;;14.82;12.90;;;;;;;25.43;27.28;99192.19;5073399;28;20045;-78
2022/04/23 10:05:58;;;;;;;14.20;12.80;;;;;;;25.98;26.01;99189.50;5061110;28;20045;-79
2022/04/23 10:08:29;;;;;;;13.70;12.40;;;;;;;26.52;25.39;99182.97;5080854;28;20057;-80
2022/04/23 10:11:07;;;;;;;14.13;12.55;;;;;;;26.07;25.22;99186.78;5088053;28;20059;-80
2022/04/23 10:13:35;;;;;;;13.18;11.98;;;;;;;26.46;25.33;99199.09;5082463;28;20052;-80
2022/04/23 10:16:03;;;;;;;13.15;11.85;;;;;;;26.37;26.09;99187.53;5078686;28;20045;-80
2022/04/23 10:18:31;;;;;;;13.02;11.90;;;;;;;27.11;24.64;99187.25;5073707;28;20127;-79
2022/04/23 10:21:02;;;;;;;13.23;12.03;;;;;;;26.44;25.12;99193.84;5075831;28;20057;-80
2022/04/23 10:23:42;;;;;;;14.32;12.93;;;;;;;26.08;26.00;99188.38;5080058;28;20526;-80
2022/04/23 10:26:28;;;;;;;14.93;13.50;;;;;;;26.27;25.00;99200.88;5083992;28;20052;-78
2022/04/23 10:28:58;;;;;;;15.50;14.10;;;;;;;26.13;25.83;99190.69;5088274;28;20052;-79
2022/04/23 10:31:25;;;;;;;14.38;12.98;;;;;;;27.13;24.47;99199.00;5090371;28;20059;-78
2022/04/23 10:33:53;;;;;;;14.27;12.77;;;;;;;27.20;24.15;99182.88;5089256;28;20049;-78
2022/04/23 10:36:21;;;;;;;15.60;14.20;;;;;;;27.42;24.33;99175.19;5092414;28;20071;-79
2022/04/23 10:38:52;;;;;;;15.85;14.25;;;;;;;26.93;24.62;99182.09;5093934;28;20056;-81
2022/04/23 10:41:23;;;;;;;19.80;14.38;;;;;;;27.38;23.90;99168.78;5093815;28;20056;-79
2022/04/23 10:43:53;;;;;;;13.10;11.90;;;;;;;27.93;25.00;99175.03;5092858;28;20063;-79
2022/04/23 10:46:46;;;;;;;15.65;14.15;;;;;;;28.39;22.95;99171.66;5091283;28;20052;-78
2022/04/23 10:49:15;;;;;;;15.98;14.45;;;;;;;28.73;22.07;99175.69;5092260;28;20060;-79
2022/04/23 10:51:53;;;;;;;15.00;13.50;;;;;;;29.35;21.45;99171.88;5090734;28;20037;-79
2022/04/23 10:54:22;;;;;;;13.88;12.57;;;;;;;30.47;20.61;99156.22;5090083;28;20183;-80
2022/04/23 10:56:59;;;;;;;15.57;14.07;;;;;;;29.60;20.88;99164.28;5086621;28;20070;-79
2022/04/23 10:59:39;;;;;;;14.13;12.82;;;;;;;28.97;22.34;99166.53;5086514;28;20051;-79
2022/04/23 11:02:13;;;;;;;15.15;13.75;;;;;;;29.69;21.04;99167.13;5082588;28;20063;-79
2022/04/23 11:13:31;;;;;;;14.57;13.07;;;;;;;27.94;22.73;99158.66;5084935;28;20410;-79
2022/04/23 11:16:11;;;;;;;15.32;13.82;;;;;;;27.74;23.05;99167.53;5068788;28;20053;-79
2022/04/23 11:18:43;;;;;;;15.50;13.98;;;;;;;27.58;23.65;99159.13;5069199;28;20049;-79
2022/04/23 11:21:13;;;;;;;15.05;13.65;;;;;;;26.97;24.11;99170.56;5067363;28;20394;-79
2022/04/23 11:23:42;;;;;;;15.80;14.20;;;;;;;26.41;24.54;99168.25;5069258;28;20044;-79
2022/04/23 11:26:12;;;;;;;17.67;13.57;;;;;;;25.86;25.49;99160.44;5067472;28;20056;-79
2022/04/23 11:28:42;;;;;;;15.38;13.98;;;;;;;25.36;26.02;99161.81;5068318;28;20705;-79
2022/04/23 11:31:11;;;;;;;13.98;12.57;;;;;;;25.28;26.29;99169.78;5068532;28;20056;-78
2022/04/23 11:33:50;;;;;;;17.05;14.48;;;;;;;24.87;26.70;99158.97;5065646;28;20049;-79
2022/04/23 11:36:18;;;;;;;15.57;14.02;;;;;;;24.58;27.46;99168.19;5067040;28;20060;-79
2022/04/23 11:38:46;;;;;;;17.33;15.67;;;;;;;24.27;27.88;99167.63;5050169;28;20050;-78
2022/04/23 11:41:26;;;;;;;15.45;13.85;;;;;;;24.42;27.25;99174.63;5065539;28;20059;-78
2022/04/23 11:43:55;;;;;;;15.55;13.98;;;;;;;24.73;27.49;99159.31;5049621;28;20053;-78
2022/04/23 11:46:23;;;;;;;15.60;14.05;;;;;;;25.04;27.04;99160.56;5064956;28;20052;-79
2022/04/23 11:48:54;;;;;;;16.67;14.85;;;;;;;25.41;26.51;99167.00;5070382;28;20386;-79
2022/04/23 11:51:24;;;;;;;15.63;14.10;;;;;;;25.67;26.09;99159.34;5068949;28;20055;-79
2022/04/23 11:53:55;;;;;;;16.13;14.48;;;;;;;26.52;25.58;99154.41;5069220;28;20060;-79
2022/04/23 11:56:24;;;;;;;14.73;13.20;;;;;;;26.81;24.71;99151.47;5063573;28;20060;-79
2022/04/23 11:58:56;;;;;;;15.02;13.63;;;;;;;26.90;24.48;99150.81;5060240;28;20059;-79